sensor_id;sensor_type;location;lat;lon;timestamp;pressure;altitude;pressure_sealevel;temperature;humidity
78509;BME280;67802;50.846;7.958;2024-01-11T00:00:14;98997.31;;;19.58;22.11
78509;BME280;67802;50.846;7.958;2024-01-11T00:02:39;98995.53;;;19.59;21.98
78509;BME280;67802;50.846;7.958;2024-01-11T00:05:05;99004.38;;;19.58;22.08
78509;BME280;67802;50.846;7.958;2024-01-11T00:07:31;99008.78;;;19.57;22.04
78509;BME280;67802;50.846;7.958;2024-01-11T00:09:57;99003.50;;;19.57;22.02
78509;BME280;67802;50.846;7.958;2024-01-11T00:12:22;99006.16;;;19.57;22.24
78509;BME280;67802;50.846;7.958;2024-01-11T00:14:47;99007.97;;;19.57;21.90
78509;BME280;67802;50.846;7.958;2024-01-11T00:17:12;99011.44;;;19.57;22.00
78509;BME280;67802;50.846;7.958;2024-01-11T00:19:38;99009.72;;;19.56;21.97
78509;BME280;67802;50.846;7.958;2024-01-11T00:22:03;99010.59;;;19.57;22.02
78509;BME280;67802;50.846;7.958;2024-01-11T00:24:28;99014.16;;;19.56;22.11
78509;BME280;67802;50.846;7.958;2024-01-11T00:26:54;99010.66;;;19.55;22.20
78509;BME280;67802;50.846;7.958;2024-01-11T00:29:19;99010.66;;;19.55;22.01
78509;BME280;67802;50.846;7.958;2024-01-11T00:31:45;99001.00;;;19.56;22.05
78509;BME280;67802;50.846;7.958;2024-01-11T00:34:10;98996.56;;;19.56;22.06
78509;BME280;67802;50.846;7.958;2024-01-11T00:36:35;98990.44;;;19.56;22.20
78509;BME280;67802;50.846;7.958;2024-01-11T00:39:01;98989.59;;;19.55;22.24
78509;BME280;67802;50.846;7.958;2024-01-11T00:41:27;98997.50;;;19.55;22.18
78509;BME280;67802;50.846;7.958;2024-01-11T00:43:52;98994.84;;;19.55;22.07
78509;BME280;67802;50.846;7.958;2024-01-11T00:46:18;98995.72;;;19.56;22.22
78509;BME280;67802;50.846;7.958;2024-01-11T00:48:43;98999.28;;;19.55;22.26
78509;BME280;67802;50.846;7.958;2024-01-11T00:51:09;98998.34;;;19.56;22.11
78509;BME280;67802;50.846;7.958;2024-01-11T00:53:34;99005.41;;;19.55;22.30
78509;BME280;67802;50.846;7.958;2024-01-11T00:56:00;98994.03;;;19.55;22.14
78509;BME280;67802;50.846;7.958;2024-01-11T00:58:25;99001.00;;;19.56;21.98
78509;BME280;67802;50.846;7.958;2024-01-11T01:00:51;98999.28;;;19.55;22.05
78509;BME280;67802;50.846;7.958;2024-01-11T01:03:18;98995.78;;;19.54;22.12
78509;BME280;67802;50.846;7.958;2024-01-11T01:05:44;98995.78;;;19.54;22.14
78509;BME280;67802;50.846;7.958;2024-01-11T01:08:10;98994.03;;;19.55;22.02
78509;BME280;67802;50.846;7.958;2024-01-11T01:10:35;98994.97;;;19.54;22.14
78509;BME280;67802;50.846;7.958;2024-01-11T01:13:00;98994.97;;;19.54;22.05
78509;BME280;67802;50.846;7.958;2024-01-11T01:15:26;98997.59;;;19.54;22.11
78509;BME280;67802;50.846;7.958;2024-01-11T01:17:51;99001.19;;;19.53;22.19
78509;BME280;67802;50.846;7.958;2024-01-11T01:20:17;99006.44;;;19.53;22.18
78509;BME280;67802;50.846;7.958;2024-01-11T01:22:42;98998.63;;;19.51;21.98
78509;BME280;67802;50.846;7.958;2024-01-11T01:25:07;99004.75;;;19.52;22.13
78509;BME280;67802;50.846;7.958;2024-01-11T01:27:33;99000.44;;;19.51;22.11
78509;BME280;67802;50.846;7.958;2024-01-11T01:29:58;99005.69;;;19.51;22.09
78509;BME280;67802;50.846;7.958;2024-01-11T01:32:23;99004.94;;;19.49;22.19
78509;BME280;67802;50.846;7.958;2024-01-11T01:34:48;99004.94;;;19.49;22.12
78509;BME280;67802;50.846;7.958;2024-01-11T01:37:14;99012.84;;;19.49;22.14
78509;BME280;67802;50.846;7.958;2024-01-11T01:39:39;99008.50;;;19.48;21.99
78509;BME280;67802;50.846;7.958;2024-01-11T01:42:05;99008.59;;;19.46;22.17
78509;BME280;67802;50.846;7.958;2024-01-11T01:44:31;99005.13;;;19.46;22.29
78509;BME280;67802;50.846;7.958;2024-01-11T01:46:56;99010.41;;;19.46;22.10
78509;BME280;67802;50.846;7.958;2024-01-11T01:49:22;99020.94;;;19.46;22.07
78509;BME280;67802;50.846;7.958;2024-01-11T01:51:48;99020.06;;;19.45;22.17
78509;BME280;67802;50.846;7.958;2024-01-11T01:54:15;99021.88;;;19.45;22.02
78509;BME280;67802;50.846;7.958;2024-01-11T01:56:41;99017.53;;;19.43;22.08
78509;BME280;67802;50.846;7.958;2024-01-11T01:59:07;99016.69;;;19.43;22.21
78509;BME280;67802;50.846;7.958;2024-01-11T02:01:33;99016.69;;;19.43;22.14
78509;BME280;67802;50.846;7.958;2024-01-11T02:03:59;99016.69;;;19.43;22.09
78509;BME280;67802;50.846;7.958;2024-01-11T02:06:25;99013.22;;;19.42;22.15
78509;BME280;67802;50.846;7.958;2024-01-11T02:08:52;99009.72;;;19.42;22.06
78509;BME280;67802;50.846;7.958;2024-01-11T02:11:20;99007.19;;;19.40;22.14
78509;BME280;67802;50.846;7.958;2024-01-11T02:13:46;99013.28;;;19.41;22.14
78509;BME280;67802;50.846;7.958;2024-01-11T02:16:13;99015.09;;;19.40;22.10
78509;BME280;67802;50.846;7.958;2024-01-11T02:18:38;99016.03;;;19.39;22.11
78509;BME280;67802;50.846;7.958;2024-01-11T02:21:06;99010.78;;;19.39;22.09
78509;BME280;67802;50.846;7.958;2024-01-11T02:23:36;99008.22;;;19.38;22.12
78509;BME280;67802;50.846;7.958;2024-01-11T02:26:05;99003.81;;;19.38;22.08
78509;BME280;67802;50.846;7.958;2024-01-11T02:28:31;99002.09;;;19.37;22.31
78509;BME280;67802;50.846;7.958;2024-01-11T02:30:56;99002.94;;;19.38;22.10
78509;BME280;67802;50.846;7.958;2024-01-11T02:33:22;99004.75;;;19.37;22.18
78509;BME280;67802;50.846;7.958;2024-01-11T02:35:47;99001.16;;;19.38;22.07
78509;BME280;67802;50.846;7.958;2024-01-11T02:38:13;99004.63;;;19.39;22.19
78509;BME280;67802;50.846;7.958;2024-01-11T02:40:40;99006.34;;;19.40;22.24
78509;BME280;67802;50.846;7.958;2024-01-11T02:43:09;99003.81;;;19.38;22.08
78509;BME280;67802;50.846;7.958;2024-01-11T02:45:35;99006.34;;;19.40;22.15
78509;BME280;67802;50.846;7.958;2024-01-11T02:48:00;99006.34;;;19.40;22.04
78509;BME280;67802;50.846;7.958;2024-01-11T02:50:25;99002.88;;;19.39;22.05
78509;BME280;67802;50.846;7.958;2024-01-11T02:52:51;99000.22;;;19.39;22.01
78509;BME280;67802;50.846;7.958;2024-01-11T02:55:16;99001.94;;;19.40;22.23
78509;BME280;67802;50.846;7.958;2024-01-11T02:57:42;98993.06;;;19.41;22.08
78509;BME280;67802;50.846;7.958;2024-01-11T03:00:07;98993.06;;;19.41;22.02
78509;BME280;67802;50.846;7.958;2024-01-11T03:02:33;98987.81;;;19.41;22.08
78509;BME280;67802;50.846;7.958;2024-01-11T03:04:58;98984.22;;;19.42;22.29
78509;BME280;67802;50.846;7.958;2024-01-11T03:07:23;98986.75;;;19.44;22.21
78509;BME280;67802;50.846;7.958;2024-01-11T03:09:48;98983.38;;;19.42;22.03
78509;BME280;67802;50.846;7.958;2024-01-11T03:12:14;98987.81;;;19.41;22.19
78509;BME280;67802;50.846;7.958;2024-01-11T03:14:39;98989.50;;;19.42;21.91
78509;BME280;67802;50.846;7.958;2024-01-11T03:17:04;98978.97;;;19.42;22.11
78509;BME280;67802;50.846;7.958;2024-01-11T03:19:30;98972.00;;;19.41;22.13
78509;BME280;67802;50.846;7.958;2024-01-11T03:21:55;98977.25;;;19.41;22.06
78509;BME280;67802;50.846;7.958;2024-01-11T03:24:20;98976.41;;;19.41;22.07
78509;BME280;67802;50.846;7.958;2024-01-11T03:26:47;98976.41;;;19.41;22.00
78509;BME280;67802;50.846;7.958;2024-01-11T03:29:12;98984.31;;;19.41;22.01
78509;BME280;67802;50.846;7.958;2024-01-11T03:31:38;98983.47;;;19.40;22.07
78509;BME280;67802;50.846;7.958;2024-01-11T03:34:06;98979.16;;;19.39;22.11
78509;BME280;67802;50.846;7.958;2024-01-11T03:36:32;98972.19;;;19.38;22.12
78509;BME280;67802;50.846;7.958;2024-01-11T03:38:57;98978.41;;;19.37;22.02
78509;BME280;67802;50.846;7.958;2024-01-11T03:41:22;98982.72;;;19.38;22.02
78509;BME280;67802;50.846;7.958;2024-01-11T03:43:50;98971.44;;;19.36;21.97
78509;BME280;67802;50.846;7.958;2024-01-11T03:46:15;98978.41;;;19.37;22.20
78509;BME280;67802;50.846;7.958;2024-01-11T03:48:41;98979.34;;;19.36;21.97
78509;BME280;67802;50.846;7.958;2024-01-11T03:51:06;98973.19;;;19.36;22.05
78509;BME280;67802;50.846;7.958;2024-01-11T03:53:35;98980.16;;;19.37;22.13
78509;BME280;67802;50.846;7.958;2024-01-11T03:56:01;98985.53;;;19.35;22.11
78509;BME280;67802;50.846;7.958;2024-01-11T03:58:27;98982.91;;;19.35;22.47
78509;BME280;67802;50.846;7.958;2024-01-11T04:00:52;98987.44;;;19.33;22.06
78509;BME280;67802;50.846;7.958;2024-01-11T04:03:17;99000.59;;;19.33;22.03
78509;BME280;67802;50.846;7.958;2024-01-11T04:05:42;98995.31;;;19.33;22.11
78509;BME280;67802;50.846;7.958;2024-01-11T04:08:08;98994.50;;;19.33;22.19
78509;BME280;67802;50.846;7.958;2024-01-11T04:10:33;98997.22;;;19.31;22.07
78509;BME280;67802;50.846;7.958;2024-01-11T04:12:58;98997.22;;;19.31;22.10
78509;BME280;67802;50.846;7.958;2024-01-11T04:15:24;99000.78;;;19.30;22.02
78509;BME280;67802;50.846;7.958;2024-01-11T04:17:49;98998.16;;;19.30;21.81
78509;BME280;67802;50.846;7.958;2024-01-11T04:20:14;98997.31;;;19.30;22.12
78509;BME280;67802;50.846;7.958;2024-01-11T04:22:40;98999.09;;;19.29;22.11
78509;BME280;67802;50.846;7.958;2024-01-11T04:25:05;98999.09;;;19.29;22.23
78509;BME280;67802;50.846;7.958;2024-01-11T04:27:31;99001.72;;;19.29;22.04
78509;BME280;67802;50.846;7.958;2024-01-11T04:29:56;99002.66;;;19.28;21.75
78509;BME280;67802;50.846;7.958;2024-01-11T04:32:22;99007.94;;;19.28;22.16
78509;BME280;67802;50.846;7.958;2024-01-11T04:34:47;99008.88;;;19.27;21.96
78509;BME280;67802;50.846;7.958;2024-01-11T04:37:12;99011.50;;;19.27;22.00
78509;BME280;67802;50.846;7.958;2024-01-11T04:39:38;99002.75;;;19.26;21.93
78509;BME280;67802;50.846;7.958;2024-01-11T04:42:03;99008.88;;;19.27;22.13
78509;BME280;67802;50.846;7.958;2024-01-11T04:44:29;99014.25;;;19.25;21.98
78509;BME280;67802;50.846;7.958;2024-01-11T04:46:54;99016.94;;;19.24;22.07
78509;BME280;67802;50.846;7.958;2024-01-11T04:49:19;99016.00;;;19.25;22.12
78509;BME280;67802;50.846;7.958;2024-01-11T04:51:44;99011.69;;;19.24;22.05
78509;BME280;67802;50.846;7.958;2024-01-11T04:54:10;99006.41;;;19.24;22.15
78509;BME280;67802;50.846;7.958;2024-01-11T04:56:35;99010.94;;;19.22;22.17
78509;BME280;67802;50.846;7.958;2024-01-11T04:59:00;99020.53;;;19.23;22.09
78509;BME280;67802;50.846;7.958;2024-01-11T05:01:25;99018.84;;;19.22;21.95
78509;BME280;67802;50.846;7.958;2024-01-11T05:03:51;99031.06;;;19.23;21.98
78509;BME280;67802;50.846;7.958;2024-01-11T05:06:17;99026.84;;;19.20;22.06
78509;BME280;67802;50.846;7.958;2024-01-11T05:08:43;99027.69;;;19.21;22.16
78509;BME280;67802;50.846;7.958;2024-01-11T05:11:15;99017.13;;;19.21;22.08
78509;BME280;67802;50.846;7.958;2024-01-11T05:13:41;99032.09;;;19.20;22.15
78509;BME280;67802;50.846;7.958;2024-01-11T05:16:06;99028.63;;;19.20;21.93
78509;BME280;67802;50.846;7.958;2024-01-11T05:18:32;99019.88;;;19.19;22.04
78509;BME280;67802;50.846;7.958;2024-01-11T05:20:57;99036.50;;;19.20;21.88
78509;BME280;67802;50.846;7.958;2024-01-11T05:23:22;99036.63;;;19.18;22.14
78509;BME280;67802;50.846;7.958;2024-01-11T05:25:47;99020.81;;;19.18;22.19
78509;BME280;67802;50.846;7.958;2024-01-11T05:28:13;99004.16;;;19.18;22.10
78509;BME280;67802;50.846;7.958;2024-01-11T05:30:38;99011.22;;;19.17;21.87
78509;BME280;67802;50.846;7.958;2024-01-11T05:33:04;99015.63;;;19.17;22.00
78509;BME280;67802;50.846;7.958;2024-01-11T05:35:29;99022.69;;;19.16;22.02
78509;BME280;67802;50.846;7.958;2024-01-11T05:37:55;99027.09;;;19.16;21.99
78509;BME280;67802;50.846;7.958;2024-01-11T05:40:20;99022.75;;;19.15;22.08
78509;BME280;67802;50.846;7.958;2024-01-11T05:42:46;99035.94;;;19.15;22.02
78509;BME280;67802;50.846;7.958;2024-01-11T05:45:11;99021.06;;;19.13;21.88
78509;BME280;67802;50.846;7.958;2024-01-11T05:47:37;99027.19;;;19.14;21.63
78509;BME280;67802;50.846;7.958;2024-01-11T05:50:02;99026.34;;;19.13;21.90
78509;BME280;67802;50.846;7.958;2024-01-11T05:52:27;99030.84;;;19.11;21.83
78509;BME280;67802;50.846;7.958;2024-01-11T05:54:53;99031.03;;;19.08;21.87
78509;BME280;67802;50.846;7.958;2024-01-11T05:57:18;99049.69;;;19.05;21.98
78509;BME280;67802;50.846;7.958;2024-01-11T05:59:44;99060.22;;;19.05;22.04
78509;BME280;67802;50.846;7.958;2024-01-11T06:02:10;99061.91;;;19.06;21.96
78509;BME280;67802;50.846;7.958;2024-01-11T06:04:36;99062.84;;;19.05;22.03
78509;BME280;67802;50.846;7.958;2024-01-11T06:07:01;99067.16;;;19.06;21.89
78509;BME280;67802;50.846;7.958;2024-01-11T06:09:26;99067.16;;;19.06;22.04
78509;BME280;67802;50.846;7.958;2024-01-11T06:11:51;99068.00;;;19.07;22.14
78509;BME280;67802;50.846;7.958;2024-01-11T06:14:17;99082.09;;;19.06;21.99
78509;BME280;67802;50.846;7.958;2024-01-11T06:16:43;99082.97;;;19.06;22.07
78509;BME280;67802;50.846;7.958;2024-01-11T06:19:08;99088.25;;;19.06;21.96
78509;BME280;67802;50.846;7.958;2024-01-11T06:21:34;99081.28;;;19.05;22.08
78509;BME280;67802;50.846;7.958;2024-01-11T06:23:59;99068.09;;;19.05;22.03
78509;BME280;67802;50.846;7.958;2024-01-11T06:26:25;99072.44;;;19.06;21.91
78509;BME280;67802;50.846;7.958;2024-01-11T06:28:50;99070.63;;;19.07;22.04
78509;BME280;67802;50.846;7.958;2024-01-11T06:31:15;99076.78;;;19.07;22.00
78509;BME280;67802;50.846;7.958;2024-01-11T06:33:40;99073.28;;;19.07;22.00
78509;BME280;67802;50.846;7.958;2024-01-11T06:36:06;99081.16;;;19.07;22.05
78509;BME280;67802;50.846;7.958;2024-01-11T06:38:34;99083.81;;;19.07;21.90
78509;BME280;67802;50.846;7.958;2024-01-11T06:41:00;99088.25;;;19.06;22.04
78509;BME280;67802;50.846;7.958;2024-01-11T06:43:25;99081.16;;;19.07;21.96
78509;BME280;67802;50.846;7.958;2024-01-11T06:45:50;99083.81;;;19.07;21.84
78509;BME280;67802;50.846;7.958;2024-01-11T06:48:16;99082.03;;;19.07;21.99
78509;BME280;67802;50.846;7.958;2024-01-11T06:50:41;99089.94;;;19.07;21.87
78509;BME280;67802;50.846;7.958;2024-01-11T06:53:06;99083.81;;;19.07;21.87
78509;BME280;67802;50.846;7.958;2024-01-11T06:55:32;99093.50;;;19.06;21.83
78509;BME280;67802;50.846;7.958;2024-01-11T06:57:57;99092.66;;;19.06;21.83
78509;BME280;67802;50.846;7.958;2024-01-11T07:00:23;99072.50;;;19.05;22.06
78509;BME280;67802;50.846;7.958;2024-01-11T07:02:48;99081.28;;;19.05;21.89
78509;BME280;67802;50.846;7.958;2024-01-11T07:05:13;99069.03;;;19.04;21.98
78509;BME280;67802;50.846;7.958;2024-01-11T07:07:39;99073.44;;;19.04;21.91
78509;BME280;67802;50.846;7.958;2024-01-11T07:10:04;99072.63;;;19.03;22.04
78509;BME280;67802;50.846;7.958;2024-01-11T07:12:31;99074.31;;;19.04;21.88
78509;BME280;67802;50.846;7.958;2024-01-11T07:14:56;99062.09;;;19.03;21.99
78509;BME280;67802;50.846;7.958;2024-01-11T07:17:21;99062.91;;;19.04;22.05
78509;BME280;67802;50.846;7.958;2024-01-11T07:19:48;99069.03;;;19.04;21.84
78509;BME280;67802;50.846;7.958;2024-01-11T07:22:13;99070.91;;;19.02;21.85
78509;BME280;67802;50.846;7.958;2024-01-11T07:24:38;99077.03;;;19.03;21.82
78509;BME280;67802;50.846;7.958;2024-01-11T07:27:07;99087.56;;;19.03;21.89
78509;BME280;67802;50.846;7.958;2024-01-11T07:29:35;99087.66;;;19.01;21.91
78509;BME280;67802;50.846;7.958;2024-01-11T07:32:01;99096.38;;;19.02;22.06
78509;BME280;67802;50.846;7.958;2024-01-11T07:34:27;99099.13;;;19.00;21.93
78509;BME280;67802;50.846;7.958;2024-01-11T07:36:52;99095.63;;;19.00;21.80
78509;BME280;67802;50.846;7.958;2024-01-11T07:39:18;99096.56;;;18.98;22.07
78509;BME280;67802;50.846;7.958;2024-01-11T07:41:44;99100.13;;;18.97;21.91
78509;BME280;67802;50.846;7.958;2024-01-11T07:44:09;99109.84;;;18.97;22.03
78509;BME280;67802;50.846;7.958;2024-01-11T07:46:34;99113.31;;;18.97;21.84
78509;BME280;67802;50.846;7.958;2024-01-11T07:48:59;99115.94;;;18.97;22.08
78509;BME280;67802;50.846;7.958;2024-01-11T07:51:25;99115.94;;;18.97;21.96
78509;BME280;67802;50.846;7.958;2024-01-11T07:53:50;99116.81;;;18.98;21.86
78509;BME280;67802;50.846;7.958;2024-01-11T07:56:16;99125.63;;;18.97;21.85
78509;BME280;67802;50.846;7.958;2024-01-11T07:58:42;99141.44;;;18.97;22.09
78509;BME280;67802;50.846;7.958;2024-01-11T08:01:07;99137.00;;;18.97;22.00
78509;BME280;67802;50.846;7.958;2024-01-11T08:03:34;99130.91;;;18.97;21.84
78509;BME280;67802;50.846;7.958;2024-01-11T08:06:00;99138.81;;;18.97;22.04
78509;BME280;67802;50.846;7.958;2024-01-11T08:08:25;99132.75;;;18.95;22.17
78509;BME280;67802;50.846;7.958;2024-01-11T08:10:51;99134.47;;;18.96;22.17
78509;BME280;67802;50.846;7.958;2024-01-11T08:13:16;99134.47;;;18.96;21.98
78509;BME280;67802;50.846;7.958;2024-01-11T08:15:43;99147.63;;;18.96;22.09
78509;BME280;67802;50.846;7.958;2024-01-11T08:18:08;99143.28;;;18.95;21.85
78509;BME280;67802;50.846;7.958;2024-01-11T08:20:33;99149.38;;;18.95;22.17
78509;BME280;67802;50.846;7.958;2024-01-11T08:22:59;99134.50;;;18.94;21.93
78509;BME280;67802;50.846;7.958;2024-01-11T08:25:24;99141.56;;;18.94;21.99
78509;BME280;67802;50.846;7.958;2024-01-11T08:27:50;99139.78;;;18.94;22.17
78509;BME280;67802;50.846;7.958;2024-01-11T08:30:15;99135.38;;;18.95;22.00
78509;BME280;67802;50.846;7.958;2024-01-11T08:32:41;99131.03;;;18.94;22.26
78509;BME280;67802;50.846;7.958;2024-01-11T08:35:08;99133.69;;;18.94;21.93
78509;BME280;67802;50.846;7.958;2024-01-11T08:37:35;99131.97;;;18.93;22.14
78509;BME280;67802;50.846;7.958;2024-01-11T08:40:01;99125.78;;;18.94;22.14
78509;BME280;67802;50.846;7.958;2024-01-11T08:42:26;99102.91;;;18.94;21.96
78509;BME280;67802;50.846;7.958;2024-01-11T08:44:52;99109.66;;;19.00;21.96
78509;BME280;67802;50.846;7.958;2024-01-11T08:47:17;99109.50;;;19.03;21.85
78509;BME280;67802;50.846;7.958;2024-01-11T08:49:43;99101.94;;;18.97;22.23
78509;BME280;67802;50.846;7.958;2024-01-11T08:52:08;99113.22;;;18.99;22.30
78509;BME280;67802;50.846;7.958;2024-01-11T08:54:34;99111.19;;;19.04;22.06
78509;BME280;67802;50.846;7.958;2024-01-11T08:56:59;99123.03;;;19.11;22.05
78509;BME280;67802;50.846;7.958;2024-01-11T08:59:25;99130.38;;;19.06;21.88
78509;BME280;67802;50.846;7.958;2024-01-11T09:01:51;99123.41;;;18.73;22.19
78509;BME280;67802;50.846;7.958;2024-01-11T09:04:17;99128.25;;;18.49;23.01
78509;BME280;67802;50.846;7.958;2024-01-11T09:06:43;99125.97;;;18.59;22.70
78509;BME280;67802;50.846;7.958;2024-01-11T09:09:08;99121.72;;;18.72;22.75
78509;BME280;67802;50.846;7.958;2024-01-11T09:11:35;99119.16;;;18.87;22.75
78509;BME280;67802;50.846;7.958;2024-01-11T09:14:01;99126.41;;;18.99;22.68
78509;BME280;67802;50.846;7.958;2024-01-11T09:16:28;99131.22;;;19.07;22.40
78509;BME280;67802;50.846;7.958;2024-01-11T09:18:53;99141.75;;;19.07;22.49
78509;BME280;67802;50.846;7.958;2024-01-11T09:21:19;99139.97;;;19.07;22.38
78509;BME280;67802;50.846;7.958;2024-01-11T09:23:44;99144.22;;;19.10;22.49
78509;BME280;67802;50.846;7.958;2024-01-11T09:26:09;99141.88;;;19.20;22.47
78509;BME280;67802;50.846;7.958;2024-01-11T09:28:35;99145.78;;;19.28;22.47
78509;BME280;67802;50.846;7.958;2024-01-11T09:31:01;99145.22;;;19.38;22.30
78509;BME280;67802;50.846;7.958;2024-01-11T09:33:27;99146.75;;;19.42;22.02
78509;BME280;67802;50.846;7.958;2024-01-11T09:35:53;99152.69;;;19.46;22.40
78509;BME280;67802;50.846;7.958;2024-01-11T09:38:18;99153.28;;;19.51;22.20
78509;BME280;67802;50.846;7.958;2024-01-11T09:40:43;99160.13;;;19.53;22.22
78509;BME280;67802;50.846;7.958;2024-01-11T09:43:09;99161.84;;;19.54;22.04
78509;BME280;67802;50.846;7.958;2024-01-11T09:45:35;99161.00;;;19.54;22.15
78509;BME280;67802;50.846;7.958;2024-01-11T09:48:02;99160.06;;;19.55;22.18
78509;BME280;67802;50.846;7.958;2024-01-11T09:50:28;99159.13;;;19.56;22.18
78509;BME280;67802;50.846;7.958;2024-01-11T09:52:54;99159.97;;;19.56;22.17
78509;BME280;67802;50.846;7.958;2024-01-11T09:55:20;99152.91;;;19.57;22.27
78509;BME280;67802;50.846;7.958;2024-01-11T09:57:47;99147.66;;;19.57;22.09
78509;BME280;67802;50.846;7.958;2024-01-11T10:00:16;99151.97;;;19.58;22.20
78509;BME280;67802;50.846;7.958;2024-01-11T10:02:41;99151.03;;;19.59;22.12
78509;BME280;67802;50.846;7.958;2024-01-11T10:05:07;99152.06;;;19.56;22.05
78509;BME280;67802;50.846;7.958;2024-01-11T10:07:34;99146.88;;;19.55;22.27
78509;BME280;67802;50.846;7.958;2024-01-11T10:09:59;99155.72;;;19.54;21.99
78509;BME280;67802;50.846;7.958;2024-01-11T10:12:27;99151.41;;;19.53;22.32
78509;BME280;67802;50.846;7.958;2024-01-11T10:14:53;99156.75;;;19.51;22.19
78509;BME280;67802;50.846;7.958;2024-01-11T10:17:18;99141.03;;;19.50;22.03
78509;BME280;67802;50.846;7.958;2024-01-11T10:19:43;99139.34;;;19.49;22.09
78509;BME280;67802;50.846;7.958;2024-01-11T10:22:09;99137.72;;;19.46;22.13
78509;BME280;67802;50.846;7.958;2024-01-11T10:24:38;99135.09;;;19.46;22.16
78509;BME280;67802;50.846;7.958;2024-01-11T10:27:04;99139.59;;;19.44;22.18
78509;BME280;67802;50.846;7.958;2024-01-11T10:29:31;99140.53;;;19.43;22.36
78509;BME280;67802;50.846;7.958;2024-01-11T10:31:56;99142.34;;;19.42;22.14
78509;BME280;67802;50.846;7.958;2024-01-11T10:34:24;99140.63;;;19.41;22.23
78509;BME280;67802;50.846;7.958;2024-01-11T10:36:50;99127.53;;;19.40;21.85
78509;BME280;67802;50.846;7.958;2024-01-11T10:39:16;99138.94;;;19.40;22.29
78509;BME280;67802;50.846;7.958;2024-01-11T10:41:47;99135.38;;;19.41;22.30
78509;BME280;67802;50.846;7.958;2024-01-11T10:44:20;99132.81;;;19.40;22.29
78509;BME280;67802;50.846;7.958;2024-01-11T10:46:48;99128.41;;;19.40;22.27
78509;BME280;67802;50.846;7.958;2024-01-11T10:49:17;99124.06;;;19.39;22.32
78509;BME280;67802;50.846;7.958;2024-01-11T10:51:45;99126.72;;;19.39;22.37
78509;BME280;67802;50.846;7.958;2024-01-11T10:54:15;99126.72;;;19.39;22.23
78509;BME280;67802;50.846;7.958;2024-01-11T10:56:42;99131.97;;;19.39;22.16
78509;BME280;67802;50.846;7.958;2024-01-11T10:59:10;99134.59;;;19.39;22.29
78509;BME280;67802;50.846;7.958;2024-01-11T11:01:38;99138.06;;;19.40;22.09
78509;BME280;67802;50.846;7.958;2024-01-11T11:04:05;99128.41;;;19.40;22.19
78509;BME280;67802;50.846;7.958;2024-01-11T11:06:31;99131.09;;;19.39;22.30
78509;BME280;67802;50.846;7.958;2024-01-11T11:08:58;99128.59;;;19.37;22.23
78509;BME280;67802;50.846;7.958;2024-01-11T11:11:24;99138.19;;;19.38;22.25
78509;BME280;67802;50.846;7.958;2024-01-11T11:13:49;99131.97;;;19.39;22.17
78509;BME280;67802;50.846;7.958;2024-01-11T11:16:16;99125.00;;;19.38;22.31
78509;BME280;67802;50.846;7.958;2024-01-11T11:18:41;99125.00;;;19.38;22.28
78509;BME280;67802;50.846;7.958;2024-01-11T11:21:10;99136.38;;;19.39;22.18
78509;BME280;67802;50.846;7.958;2024-01-11T11:23:38;99133.75;;;19.39;22.12
78509;BME280;67802;50.846;7.958;2024-01-11T11:26:05;99139.94;;;19.38;22.20
78509;BME280;67802;50.846;7.958;2024-01-11T11:28:31;99137.41;;;19.36;22.31
78509;BME280;67802;50.846;7.958;2024-01-11T11:30:59;99131.28;;;19.36;22.26
78509;BME280;67802;50.846;7.958;2024-01-11T11:33:25;99128.75;;;19.34;22.16
78509;BME280;67802;50.846;7.958;2024-01-11T11:35:57;99124.44;;;19.33;22.25
78509;BME280;67802;50.846;7.958;2024-01-11T11:38:27;99117.38;;;19.34;22.20
78509;BME280;67802;50.846;7.958;2024-01-11T11:41:00;99118.22;;;19.34;22.26
78509;BME280;67802;50.846;7.958;2024-01-11T11:43:27;99108.50;;;19.35;22.31
78509;BME280;67802;50.846;7.958;2024-01-11T11:45:53;99107.69;;;19.34;22.16
78509;BME280;67802;50.846;7.958;2024-01-11T11:51:13;99098.84;;;19.35;22.04
78509;BME280;67802;50.846;7.958;2024-01-11T11:53:41;99102.22;;;19.37;22.35
78509;BME280;67802;50.846;7.958;2024-01-11T11:56:07;99095.25;;;19.36;22.03
78509;BME280;67802;50.846;7.958;2024-01-11T11:58:35;99096.97;;;19.37;22.24
78509;BME280;67802;50.846;7.958;2024-01-11T12:01:01;99103.06;;;19.38;21.98
78509;BME280;67802;50.846;7.958;2024-01-11T12:03:35;99099.59;;;19.37;22.02
78509;BME280;67802;50.846;7.958;2024-01-11T12:06:04;99108.34;;;19.38;22.05
78509;BME280;67802;50.846;7.958;2024-01-11T12:08:33;99100.53;;;19.36;22.49
78509;BME280;67802;50.846;7.958;2024-01-11T12:10:58;99094.31;;;19.37;22.25
78509;BME280;67802;50.846;7.958;2024-01-11T12:13:25;99094.31;;;19.37;22.24
78509;BME280;67802;50.846;7.958;2024-01-11T12:15:50;99085.56;;;19.37;22.29
78509;BME280;67802;50.846;7.958;2024-01-11T12:18:16;99081.16;;;19.37;22.18
78509;BME280;67802;50.846;7.958;2024-01-11T12:20:41;99079.34;;;19.38;22.24
78509;BME280;67802;50.846;7.958;2024-01-11T12:23:07;99069.69;;;19.38;22.02
78509;BME280;67802;50.846;7.958;2024-01-11T12:25:32;99063.47;;;19.39;22.40
78509;BME280;67802;50.846;7.958;2024-01-11T12:27:58;99076.53;;;19.41;22.38
78509;BME280;67802;50.846;7.958;2024-01-11T12:30:26;99075.69;;;19.40;22.14
78509;BME280;67802;50.846;7.958;2024-01-11T12:32:55;99065.16;;;19.40;22.25
78509;BME280;67802;50.846;7.958;2024-01-11T12:35:21;99067.78;;;19.40;21.93
78509;BME280;67802;50.846;7.958;2024-01-11T12:38:01;99058.19;;;19.39;22.26
78509;BME280;67802;50.846;7.958;2024-01-11T12:40:27;99061.78;;;19.38;22.38
78509;BME280;67802;50.846;7.958;2024-01-11T12:42:53;99061.78;;;19.38;22.28
78509;BME280;67802;50.846;7.958;2024-01-11T12:45:19;99067.03;;;19.38;22.34
78509;BME280;67802;50.846;7.958;2024-01-11T12:47:45;99060.06;;;19.37;22.02
78509;BME280;67802;50.846;7.958;2024-01-11T12:50:13;99062.78;;;19.36;22.21
78509;BME280;67802;50.846;7.958;2024-01-11T12:52:39;99066.34;;;19.35;22.06
78509;BME280;67802;50.846;7.958;2024-01-11T12:55:07;99080.50;;;19.34;22.22